Time;durP1;ratioP1;P1;durP2;ratioP2;P2;SDS_P1;SDS_P2;PMS_P1;PMS_P2;Temp;Humidity;BMP_temperature;BMP_pressure;BME280_temperature;BME280_humidity;BME280_pressure;Samples;Min_cycle;Max_cycle;Signal;HPM_P1;HPM_P2
2021/10/01 00:01:22;;;;;;;10.73;5.28;;;;;;;;;;5017414;28;20453;-83
2021/10/01 00:03:49;;;;;;;9.18;5.05;;;;;;;;;;5016919;28;20057;-82
2021/10/01 00:06:19;;;;;;;10.48;4.70;;;;;;;;;;5017933;28;20074;-82
2021/10/01 00:08:46;;;;;;;8.93;4.20;;;;;;;;;;5017210;28;20057;-83
2021/10/01 00:11:12;;;;;;;6.28;4.22;;;;;;;;;;5017550;28;20060;-82
2021/10/01 00:13:39;;;;;;;7.68;4.18;;;;;;;;;;5018197;28;20133;-83
2021/10/01 00:16:06;;;;;;;7.75;4.78;;;;;;;;;;5017140;28;20089;-83
2021/10/01 00:18:36;;;;;;;10.15;4.20;;;;;;;;;;5018351;28;20050;-83
2021/10/01 00:21:03;;;;;;;6.05;3.78;;;;;;;;;;5017882;28;20045;-83
2021/10/01 00:23:32;;;;;;;7.07;4.57;;;;;;;;;;5017779;28;20041;-83
2021/10/01 00:25:59;;;;;;;11.32;5.15;;;;;;;;;;5017608;28;20500;-84
2021/10/01 00:28:27;;;;;;;7.45;4.10;;;;;;;;;;5017465;28;20045;-84
2021/10/01 00:30:56;;;;;;;9.52;4.82;;;;;;;;;;5018982;28;20046;-83
2021/10/01 00:33:23;;;;;;;8.57;4.68;;;;;;;;;;5017305;28;20050;-84
2021/10/01 00:35:50;;;;;;;8.98;4.63;;;;;;;;;;5017387;28;20046;-83
2021/10/01 00:38:17;;;;;;;9.45;4.90;;;;;;;;;;5018834;28;20054;-83
2021/10/01 00:40:46;;;;;;;7.68;4.63;;;;;;;;;;5019956;28;20056;-83
2021/10/01 00:43:13;;;;;;;7.97;4.78;;;;;;;;;;5021377;28;20046;-83
2021/10/01 00:45:42;;;;;;;7.63;5.07;;;;;;;;;;5018027;28;20042;-83
2021/10/01 00:48:09;;;;;;;9.18;4.80;;;;;;;;;;5018905;28;20132;-83
2021/10/01 00:50:36;;;;;;;7.60;4.82;;;;;;;;;;5018788;28;20060;-83
2021/10/01 00:53:04;;;;;;;7.45;4.57;;;;;;;;;;5017911;28;20697;-83
2021/10/01 00:55:31;;;;;;;7.93;4.75;;;;;;;;;;5016549;28;20105;-84
2021/10/01 00:57:59;;;;;;;7.32;5.93;;;;;;;;;;5016744;28;20065;-83
2021/10/01 01:00:27;;;;;;;7.38;4.68;;;;;;;;;;5017576;28;20050;-83
2021/10/01 01:02:56;;;;;;;7.68;4.90;;;;;;;;;;5017113;28;20517;-83
2021/10/01 01:05:31;;;;;;;9.90;5.13;;;;;;;;;;5017000;28;20061;-83
2021/10/01 01:08:03;;;;;;;7.03;4.45;;;;;;;;;;5017192;28;20080;-83
2021/10/01 01:10:42;;;;;;;8.32;4.95;;;;;;;;;;5018033;28;20068;-83
2021/10/01 01:13:19;;;;;;;8.00;4.78;;;;;;;;;;5018624;28;20123;-83
2021/10/01 01:15:52;;;;;;;6.63;4.40;;;;;;;;;;5016638;28;20571;-84
2021/10/01 01:18:28;;;;;;;7.20;4.55;;;;;;;;;;5016181;28;20085;-83
2021/10/01 01:20:59;;;;;;;8.35;4.97;;;;;;;;;;5016301;28;20089;-84
2021/10/01 01:23:36;;;;;;;;;;;;;;;;;;5017303;28;20416;-84
2021/10/01 01:26:11;;;;;;;7.88;4.47;;;;;;;;;;5017010;28;19921;-83
2021/10/01 01:28:49;;;;;;;9.35;4.45;;;;;;;;;;5027539;28;20571;-83
2021/10/01 01:31:31;;;;;;;8.43;5.13;;;;;;;;;;5034402;28;20061;-83
2021/10/01 01:34:02;;;;;;;11.02;6.00;;;;;;;;;;5035339;28;20034;-83
2021/10/01 01:36:30;;;;;;;11.13;5.43;;;;;;;;;;5034812;28;20049;-83
2021/10/01 01:38:59;;;;;;;9.43;5.50;;;;;;;;;;5021066;28;20049;-83
2021/10/01 01:41:28;;;;;;;10.27;5.28;;;;;;;;;;5019653;28;20054;-83
2021/10/01 01:43:57;;;;;;;10.98;5.35;;;;;;;;;;5019840;28;20118;-84
2021/10/01 01:46:31;;;;;;;7.32;4.97;;;;;;;;;;5019414;28;20068;-84
2021/10/01 01:49:00;;;;;;;8.88;6.10;;;;;;;;;;5032572;28;20061;-82
2021/10/01 01:51:28;;;;;;;8.85;5.70;;;;;;;;;;5035844;28;20026;-83
2021/10/01 01:53:56;;;;;;;8.98;5.50;;;;;;;;;;5036127;28;20077;-83
2021/10/01 01:56:23;;;;;;;10.45;5.65;;;;;;;;;;5034456;28;20562;-83
2021/10/01 01:58:51;;;;;;;8.50;4.78;;;;;;;;;;5035951;28;20065;-84
2021/10/01 02:01:19;;;;;;;8.88;5.38;;;;;;;;;;5038372;28;20041;-83
2021/10/01 02:03:46;;;;;;;9.65;5.30;;;;;;;;;;5037737;28;20042;-82
2021/10/01 02:06:16;;;;;;;11.48;6.80;;;;;;;;;;5035875;28;20125;-82
2021/10/01 02:08:44;;;;;;;7.57;5.15;;;;;;;;;;5032873;28;20061;-83
2021/10/01 02:11:12;;;;;;;11.13;4.95;;;;;;;;;;5026661;28;20046;-83
2021/10/01 02:13:41;;;;;;;9.82;5.85;;;;;;;;;;5033614;28;20053;-83
2021/10/01 02:16:10;;;;;;;8.45;5.50;;;;;;;;;;5031880;28;20042;-83
2021/10/01 02:18:39;;;;;;;7.85;5.30;;;;;;;;;;5024739;28;20077;-83
2021/10/01 02:21:06;;;;;;;12.23;5.85;;;;;;;;;;5023248;28;20045;-83
2021/10/01 02:23:35;;;;;;;8.50;5.60;;;;;;;;;;5021952;28;20069;-83
2021/10/01 02:29:01;;;;;;;8.98;5.53;;;;;;;;;;5024962;28;20100;-83
2021/10/01 02:31:35;;;;;;;10.07;4.95;;;;;;;;;;5026388;28;20046;-83
2021/10/01 02:34:03;;;;;;;9.38;5.50;;;;;;;;;;5030531;28;20180;-83
2021/10/01 02:36:30;;;;;;;10.07;5.43;;;;;;;;;;5034806;28;20077;-83
2021/10/01 02:38:59;;;;;;;9.45;5.55;;;;;;;;;;5025173;28;20473;-83
2021/10/01 02:41:26;;;;;;;7.47;5.15;;;;;;;;;;5028409;28;20069;-83
2021/10/01 02:43:52;;;;;;;8.63;5.03;;;;;;;;;;5035868;28;20040;-83
2021/10/01 02:46:19;;;;;;;8.85;5.30;;;;;;;;;;5036918;28;20057;-82
2021/10/01 02:48:46;;;;;;;9.02;5.47;;;;;;;;;;5037000;28;20050;-83
2021/10/01 02:51:19;;;;;;;8.52;6.07;;;;;;;;;;5034281;28;20073;-83
2021/10/01 02:53:50;;;;;;;7.43;4.85;;;;;;;;;;5031179;28;20050;-83
2021/10/01 02:56:24;;;;;;;8.80;5.38;;;;;;;;;;5019003;28;20051;-83
2021/10/01 02:58:57;;;;;;;8.63;5.97;;;;;;;;;;5003534;28;20056;-83
2021/10/01 03:01:27;;;;;;;7.68;5.10;;;;;;;;;;5001422;28;20112;-83
2021/10/01 03:03:58;;;;;;;7.97;5.57;;;;;;;;;;5000939;28;20042;-83
2021/10/01 03:06:28;;;;;;;8.57;5.05;;;;;;;;;;5000949;28;20061;-83
2021/10/01 03:08:55;;;;;;;9.40;4.97;;;;;;;;;;5000630;28;20421;-83
2021/10/01 03:11:25;;;;;;;8.52;4.85;;;;;;;;;;5001350;28;20054;-83
2021/10/01 03:13:53;;;;;;;8.35;4.68;;;;;;;;;;5001232;28;20053;-82
2021/10/01 03:16:20;;;;;;;9.63;5.30;;;;;;;;;;5001035;28;20445;-83
2021/10/01 03:18:49;;;;;;;7.47;5.43;;;;;;;;;;5000929;28;20494;-83
2021/10/01 03:21:19;;;;;;;8.05;4.50;;;;;;;;;;5001024;28;20050;-83
2021/10/01 03:23:47;;;;;;;9.15;5.25;;;;;;;;;;5000653;28;20481;-83
2021/10/01 03:26:14;;;;;;;11.50;5.45;;;;;;;;;;5000626;28;20053;-82
2021/10/01 03:28:44;;;;;;;8.75;5.70;;;;;;;;;;5001387;28;20060;-83
2021/10/01 03:31:11;;;;;;;6.80;4.13;;;;;;;;;;5001097;28;20054;-83
2021/10/01 03:33:40;;;;;;;7.50;4.47;;;;;;;;;;5000675;28;20053;-83
2021/10/01 03:36:08;;;;;;;9.98;4.57;;;;;;;;;;5001186;28;20042;-83
2021/10/01 03:38:35;;;;;;;8.75;4.80;;;;;;;;;;5000314;28;20046;-83
2021/10/01 03:41:02;;;;;;;9.25;4.57;;;;;;;;;;4999644;28;20081;-83
2021/10/01 03:43:29;;;;;;;6.18;4.28;;;;;;;;;;4999863;28;20062;-83
2021/10/01 03:45:58;;;;;;;9.57;4.50;;;;;;;;;;5000922;28;20058;-83
2021/10/01 03:48:26;;;;;;;6.90;4.40;;;;;;;;;;5003367;28;20054;-83
2021/10/01 03:50:53;;;;;;;9.82;4.50;;;;;;;;;;5002931;28;20050;-83
2021/10/01 03:53:21;;;;;;;6.90;4.63;;;;;;;;;;5004112;28;20056;-83
2021/10/01 03:55:48;;;;;;;9.75;4.97;;;;;;;;;;5005525;28;20061;-83
2021/10/01 03:58:14;;;;;;;8.48;4.93;;;;;;;;;;5003621;28;20118;-84
2021/10/01 04:00:44;;;;;;;13.32;5.18;;;;;;;;;;5003441;28;20065;-84
2021/10/01 04:03:13;;;;;;;7.35;4.10;;;;;;;;;;5006324;28;20081;-84
2021/10/01 04:05:39;;;;;;;9.25;4.53;;;;;;;;;;5006956;28;20057;-84
2021/10/01 04:08:11;;;;;;;7.72;4.70;;;;;;;;;;5003370;28;20454;-85
2021/10/01 04:10:39;;;;;;;10.65;4.80;;;;;;;;;;5003554;28;20089;-84
2021/10/01 04:13:08;;;;;;;9.25;5.60;;;;;;;;;;5001886;28;20050;-84
2021/10/01 04:15:35;;;;;;;7.80;5.30;;;;;;;;;;5001013;28;20116;-84
2021/10/01 04:18:02;;;;;;;8.18;5.15;;;;;;;;;;5000848;28;20551;-84
2021/10/01 04:20:33;;;;;;;8.88;5.20;;;;;;;;;;4999738;28;20462;-85
2021/10/01 04:22:59;;;;;;;9.48;5.38;;;;;;;;;;5001028;28;20058;-84
2021/10/01 04:25:26;;;;;;;9.93;5.82;;;;;;;;;;4998688;28;20508;-84
2021/10/01 04:27:53;;;;;;;9.25;5.38;;;;;;;;;;4998054;28;20057;-84
2021/10/01 04:30:20;;;;;;;9.18;5.75;;;;;;;;;;4998618;28;20061;-84
2021/10/01 04:32:57;;;;;;;7.32;4.75;;;;;;;;;;4997942;28;20046;-84
2021/10/01 04:35:24;;;;;;;9.32;5.05;;;;;;;;;;4997923;28;20156;-84
2021/10/01 04:37:52;;;;;;;8.30;4.30;;;;;;;;;;4998322;28;20489;-84
2021/10/01 04:40:19;;;;;;;8.80;5.10;;;;;;;;;;5000695;28;20057;-84
2021/10/01 04:42:46;;;;;;;7.55;4.90;;;;;;;;;;4999115;28;20493;-84
2021/10/01 04:45:13;;;;;;;8.23;5.20;;;;;;;;;;4997316;28;20050;-84
2021/10/01 04:47:40;;;;;;;8.90;4.90;;;;;;;;;;4997571;28;20054;-85
2021/10/01 04:50:07;;;;;;;7.55;4.72;;;;;;;;;;4997956;28;20053;-84
2021/10/01 04:52:34;;;;;;;7.30;4.85;;;;;;;;;;4998469;28;20050;-84
2021/10/01 04:55:03;;;;;;;8.75;4.90;;;;;;;;;;5002748;28;20054;-84
2021/10/01 04:57:30;;;;;;;10.90;4.78;;;;;;;;;;5031804;23;20034;-64
2021/10/01 04:59:57;;;;;;;7.90;4.63;;;;;;;;;;4972448;28;20062;-64
2021/10/01 05:02:24;;;;;;;9.52;5.35;;;;;;;;;;4973883;28;20054;-64
2021/10/01 05:04:54;;;;;;;8.57;5.05;;;;;;;;;;4973692;28;20055;-64
2021/10/01 05:07:21;;;;;;;7.63;4.53;;;;;;;;;;4973930;28;20062;-64
2021/10/01 05:09:49;;;;;;;7.93;4.68;;;;;;;;;;4973194;28;20082;-65
2021/10/01 05:12:17;;;;;;;9.52;4.30;;;;;;;;;;4973509;28;20487;-64
2021/10/01 05:14:44;;;;;;;7.68;4.43;;;;;;;;;;4973088;28;20051;-64
2021/10/01 05:17:11;;;;;;;7.82;4.40;;;;;;;;;;4973395;28;20055;-63
2021/10/01 05:19:38;;;;;;;9.80;4.80;;;;;;;;;;4973229;28;20051;-64
2021/10/01 05:22:05;;;;;;;8.00;5.07;;;;;;;;;;4973378;28;20062;-64
2021/10/01 05:24:32;;;;;;;11.32;4.80;;;;;;;;;;4973232;28;20050;-64
2021/10/01 05:26:59;;;;;;;11.05;4.90;;;;;;;;;;4973591;28;20511;-64
2021/10/01 05:29:27;;;;;;;10.38;5.18;;;;;;;;;;4973364;28;20051;-64
2021/10/01 05:31:56;;;;;;;7.22;4.32;;;;;;;;;;4972933;28;20411;-65
2021/10/01 05:34:23;;;;;;;7.72;4.40;;;;;;;;;;4972921;28;20082;-64
2021/10/01 05:36:50;;;;;;;8.13;3.95;;;;;;;;;;4973310;28;20055;-65
2021/10/01 05:39:17;;;;;;;9.60;5.38;;;;;;;;;;4973231;28;20047;-65
2021/10/01 05:41:44;;;;;;;9.27;4.78;;;;;;;;;;4972967;28;20043;-64
2021/10/01 05:44:11;;;;;;;10.77;5.40;;;;;;;;;;4972842;28;20082;-65
2021/10/01 05:46:43;;;;;;;26.75;13.32;;;;;;;;;;4972792;28;20046;-65
2021/10/01 05:49:13;;;;;;;11.65;7.65;;;;;;;;;;4973494;28;20579;-64
2021/10/01 05:51:47;;;;;;;11.68;6.50;;;;;;;;;;4973100;28;20055;-65
2021/10/01 05:54:21;;;;;;;8.25;4.80;;;;;;;;;;4973112;28;20576;-63
2021/10/01 05:56:48;;;;;;;9.43;4.90;;;;;;;;;;4988457;28;20062;-64
2021/10/01 05:59:15;;;;;;;8.20;4.68;;;;;;;;;;4992329;28;20061;-65
2021/10/01 06:01:44;;;;;;;10.77;5.10;;;;;;;;;;4993292;28;20057;-65
2021/10/01 06:04:11;;;;;;;8.68;5.10;;;;;;;;;;4996366;28;20058;-64
2021/10/01 06:06:38;;;;;;;11.15;5.63;;;;;;;;;;4996394;28;20161;-65
2021/10/01 06:09:09;;;;;;;11.32;5.55;;;;;;;;;;4996281;28;20427;-64
2021/10/01 06:11:37;;;;;;;10.18;5.53;;;;;;;;;;4996109;28;20526;-64
2021/10/01 06:14:04;;;;;;;19.75;11.20;;;;;;;;;;4995662;28;20060;-64
2021/10/01 06:16:32;;;;;;;13.48;7.50;;;;;;;;;;4996285;28;20057;-65
2021/10/01 06:19:00;;;;;;;15.88;5.78;;;;;;;;;;4996082;28;20050;-65
2021/10/01 06:21:27;;;;;;;8.43;5.00;;;;;;;;;;4995820;28;20046;-65
2021/10/01 06:23:55;;;;;;;7.93;4.32;;;;;;;;;;4995774;28;20054;-65
2021/10/01 06:26:22;;;;;;;9.63;4.53;;;;;;;;;;4995686;28;20053;-64
2021/10/01 06:28:49;;;;;;;8.85;4.60;;;;;;;;;;4995885;28;20061;-65
2021/10/01 06:31:16;;;;;;;6.88;4.35;;;;;;;;;;4995582;28;20055;-65
2021/10/01 06:33:43;;;;;;;9.20;5.28;;;;;;;;;;4995423;28;20051;-64
2021/10/01 06:36:12;;;;;;;8.57;5.65;;;;;;;;;;4995456;28;20062;-64
2021/10/01 06:38:39;;;;;;;8.55;4.95;;;;;;;;;;4995358;28;20061;-64
2021/10/01 06:41:07;;;;;;;9.18;4.47;;;;;;;;;;4995498;28;20054;-64
2021/10/01 06:43:34;;;;;;;8.05;4.80;;;;;;;;;;4995220;28;20050;-64
2021/10/01 06:46:04;;;;;;;12.23;7.30;;;;;;;;;;4995621;28;20061;-64
2021/10/01 06:48:42;;;;;;;16.98;9.98;;;;;;;;;;4995539;28;20057;-64
2021/10/01 07:21:54;;;;;;;15.90;10.60;;;;;;;;;;4976713;28;20546;-65
2021/10/01 08:19:22;;;;;;;14.45;7.25;;;;;;;;;;4981116;28;20073;-63
2021/10/01 08:21:50;;;;;;;10.95;7.18;;;;;;;;;;4983154;28;20054;-64
2021/10/01 08:24:17;;;;;;;11.30;6.97;;;;;;;;;;4976221;28;20054;-64
2021/10/01 08:26:46;;;;;;;11.90;7.20;;;;;;;;;;4971679;28;20496;-64
2021/10/01 08:29:15;;;;;;;9.98;6.18;;;;;;;;;;4972563;28;20435;-64
2021/10/01 08:31:43;;;;;;;14.20;5.90;;;;;;;;;;4972104;28;20047;-64
2021/10/01 08:34:11;;;;;;;14.00;7.05;;;;;;;;;;4972027;28;20051;-63
2021/10/01 08:36:38;;;;;;;14.95;6.38;;;;;;;;;;4972030;28;20066;-63
2021/10/01 08:39:07;;;;;;;18.92;11.82;;;;;;;;;;4971929;28;20055;-63
2021/10/01 08:41:34;;;;;;;12.20;7.00;;;;;;;;;;4971702;28;20051;-62
2021/10/01 08:44:02;;;;;;;13.55;8.65;;;;;;;;;;4971656;28;20133;-62
2021/10/01 08:46:31;;;;;;;13.13;7.60;;;;;;;;;;4979599;28;20061;-63
2021/10/01 08:49:00;;;;;;;11.05;6.40;;;;;;;;;;4980886;28;20344;-64
2021/10/01 08:51:27;;;;;;;10.88;5.22;;;;;;;;;;4972220;28;20073;-63
2021/10/01 08:53:55;;;;;;;11.77;7.32;;;;;;;;;;4972043;28;20055;-64
2021/10/01 08:56:24;;;;;;;10.65;6.68;;;;;;;;;;4977817;28;20065;-63
2021/10/01 08:58:51;;;;;;;12.30;6.03;;;;;;;;;;4972409;28;20051;-63
2021/10/01 09:01:18;;;;;;;10.57;5.30;;;;;;;;;;4971483;28;20047;-63
2021/10/01 09:03:47;;;;;;;9.80;4.95;;;;;;;;;;4982020;28;20086;-63
2021/10/01 09:06:15;;;;;;;8.35;4.93;;;;;;;;;;4981601;28;20046;-62
2021/10/01 09:08:51;;;;;;;8.27;4.93;;;;;;;;;;4981752;28;20050;-63
2021/10/01 09:11:19;;;;;;;8.70;5.03;;;;;;;;;;4982154;28;20042;-63
2021/10/01 09:13:46;;;;;;;7.30;4.80;;;;;;;;;;4979688;28;20046;-62
2021/10/01 09:16:14;;;;;;;15.70;8.23;;;;;;;;;;4977073;28;20574;-64
2021/10/01 09:18:42;;;;;;;11.10;6.32;;;;;;;;;;4979545;28;20058;-64
2021/10/01 09:21:13;;;;;;;8.85;4.68;;;;;;;;;;4980668;28;20044;-64
2021/10/01 09:23:44;;;;;;;6.88;4.68;;;;;;;;;;4989858;28;20054;-63
2021/10/01 09:26:15;;;;;;;8.38;4.53;;;;;;;;;;4991175;28;20056;-63
2021/10/01 09:28:48;;;;;;;7.78;4.15;;;;;;;;;;4989732;28;20057;-63
2021/10/01 09:31:36;;;;;;;6.90;3.92;;;;;;;;;;4980796;28;20057;-63
2021/10/01 09:34:05;;;;;;;8.57;4.13;;;;;;;;;;4981033;28;20054;-63
2021/10/01 09:36:34;;;;;;;13.40;10.20;;;;;;;;;;4978582;28;20137;-64
2021/10/01 09:39:01;;;;;;;7.10;4.00;;;;;;;;;;4981298;28;20297;-64
2021/10/01 09:41:30;;;;;;;7.22;3.80;;;;;;;;;;4977487;28;20090;-63
2021/10/01 09:44:06;;;;;;;6.47;4.00;;;;;;;;;;4981742;28;20051;-63
2021/10/01 09:46:38;;;;;;;6.45;3.58;;;;;;;;;;4980539;28;20703;-62
2021/10/01 09:49:06;;;;;;;7.35;3.65;;;;;;;;;;4982600;28;20057;-65
2021/10/01 09:51:36;;;;;;;6.70;2.92;;;;;;;;;;4985347;28;20046;-64
2021/10/01 09:54:11;;;;;;;6.38;3.42;;;;;;;;;;4988180;28;20112;-63
2021/10/01 09:56:39;;;;;;;6.63;3.17;;;;;;;;;;4981224;28;20129;-63
2021/10/01 09:59:08;;;;;;;4.97;3.00;;;;;;;;;;4980448;28;20047;-62
2021/10/01 10:01:35;;;;;;;5.25;2.78;;;;;;;;;;4987570;28;20050;-63
2021/10/01 10:04:14;;;;;;;5.63;3.38;;;;;;;;;;4987521;28;20542;-63
2021/10/01 10:06:45;;;;;;;6.18;3.42;;;;;;;;;;4980233;28;20487;-62
2021/10/01 10:09:12;;;;;;;6.40;2.92;;;;;;;;;;4979123;28;20138;-62
2021/10/01 10:11:40;;;;;;;5.70;3.28;;;;;;;;;;4980122;28;20484;-63
2021/10/01 10:14:09;;;;;;;4.25;2.80;;;;;;;;;;4980609;28;20054;-62
2021/10/01 10:16:37;;;;;;;7.30;2.90;;;;;;;;;;4980092;28;20054;-63
2021/10/01 10:19:06;;;;;;;4.97;2.40;;;;;;;;;;4979338;28;20074;-63
2021/10/01 10:21:34;;;;;;;6.15;2.72;;;;;;;;;;4984626;28;20058;-62
2021/10/01 10:24:04;;;;;;;16.10;9.05;;;;;;;;;;4970455;28;20058;-63
2021/10/01 10:26:31;;;;;;;8.90;5.35;;;;;;;;;;4970909;28;20334;-64
2021/10/01 10:29:01;;;;;;;10.10;5.35;;;;;;;;;;4970635;28;20138;-64
2021/10/01 10:31:29;;;;;;;7.10;3.58;;;;;;;;;;4970721;28;20149;-64
2021/10/01 10:33:57;;;;;;;5.70;3.38;;;;;;;;;;4974143;28;20038;-64
2021/10/01 10:36:47;;;;;;;8.95;3.45;;;;;;;;;;4990343;28;20521;-63
2021/10/01 10:39:50;;;;;;;4.65;2.70;;;;;;;;;;4986046;28;20046;-64
2021/10/01 10:42:34;;;;;;;5.15;2.70;;;;;;;;;;4989848;28;20050;-65
2021/10/01 10:45:20;;;;;;;4.93;2.70;;;;;;;;;;4978245;28;20058;-64
2021/10/01 10:47:55;;;;;;;6.78;2.83;;;;;;;;;;4990213;28;20507;-64
2021/10/01 10:50:35;;;;;;;5.93;2.60;;;;;;;;;;4993028;28;20062;-64
2021/10/01 10:53:11;;;;;;;5.32;2.50;;;;;;;;;;4993008;28;20054;-63
2021/10/01 10:55:50;;;;;;;11.13;5.13;;;;;;;;;;4987567;28;20389;-64
2021/10/01 10:58:53;;;;;;;7.22;3.30;;;;;;;;;;4973692;28;20053;-64
2021/10/01 11:01:36;;;;;;;6.07;3.70;;;;;;;;;;4971029;28;20054;-64
2021/10/01 11:04:39;;;;;;;6.70;4.03;;;;;;;;;;4973630;28;20375;-64
2021/10/01 11:07:08;;;;;;;8.00;3.38;;;;;;;;;;4974064;28;20562;-64
2021/10/01 11:09:38;;;;;;;5.30;2.58;;;;;;;;;;4974018;28;20093;-64
2021/10/01 11:12:25;;;;;;;5.00;2.90;;;;;;;;;;4974100;28;20055;-64
2021/10/01 11:15:18;;;;;;;4.97;2.50;;;;;;;;;;4973520;28;20069;-63
2021/10/01 11:18:13;;;;;;;7.50;2.85;;;;;;;;;;4973650;28;20043;-63
2021/10/01 11:20:40;;;;;;;5.15;3.00;;;;;;;;;;4973318;28;20062;-62
2021/10/01 11:23:19;;;;;;;4.50;2.50;;;;;;;;;;4973853;28;20054;-64
2021/10/01 11:25:46;;;;;;;5.57;2.90;;;;;;;;;;4973372;28;20063;-63
2021/10/01 11:28:14;;;;;;;9.05;2.92;;;;;;;;;;4973227;28;20062;-62
2021/10/01 11:30:42;;;;;;;6.05;2.80;;;;;;;;;;4973089;28;20061;-65
2021/10/01 11:33:11;;;;;;;4.75;2.53;;;;;;;;;;4973515;28;20531;-63
2021/10/01 11:35:53;;;;;;;7.15;2.55;;;;;;;;;;4973075;28;20062;-65
2021/10/01 11:38:33;;;;;;;4.50;2.60;;;;;;;;;;4973483;28;20051;-65
2021/10/01 11:41:12;;;;;;;6.15;2.75;;;;;;;;;;4973371;28;20412;-64
2021/10/01 11:43:48;;;;;;;6.55;3.03;;;;;;;;;;4973104;28;20047;-65
2021/10/01 11:46:25;;;;;;;5.13;2.60;;;;;;;;;;4972954;28;20069;-64
2021/10/01 11:48:52;;;;;;;5.13;2.58;;;;;;;;;;4973465;28;20061;-64
2021/10/01 11:51:19;;;;;;;6.18;2.58;;;;;;;;;;4972815;28;20085;-65
2021/10/01 11:53:46;;;;;;;5.20;2.50;;;;;;;;;;4973048;28;20494;-65
2021/10/01 11:56:13;;;;;;;6.00;2.80;;;;;;;;;;4972825;28;20046;-64
2021/10/01 11:58:40;;;;;;;5.03;2.60;;;;;;;;;;4972772;28;20047;-64
2021/10/01 12:01:12;;;;;;;9.35;3.55;;;;;;;;;;4972506;28;20138;-65
2021/10/01 12:03:49;;;;;;;5.43;3.20;;;;;;;;;;4972748;28;20054;-65
2021/10/01 12:06:21;;;;;;;5.70;3.20;;;;;;;;;;4972764;28;20065;-63
2021/10/01 12:08:56;;;;;;;5.10;2.45;;;;;;;;;;4972548;28;20050;-67
2021/10/01 12:11:31;;;;;;;5.47;2.85;;;;;;;;;;4972891;28;20455;-64
2021/10/01 12:14:10;;;;;;;4.38;2.42;;;;;;;;;;4972649;28;20481;-65
2021/10/01 12:16:39;;;;;;;9.80;4.32;;;;;;;;;;4972755;28;20051;-64
2021/10/01 12:19:08;;;;;;;6.90;3.67;;;;;;;;;;4972922;28;20055;-65
2021/10/01 12:21:36;;;;;;;5.43;3.60;;;;;;;;;;4972410;28;20137;-63
2021/10/01 12:24:09;;;;;;;6.95;3.13;;;;;;;;;;4972317;28;20062;-65
2021/10/01 12:26:38;;;;;;;5.22;2.83;;;;;;;;;;4972289;28;20061;-62
2021/10/01 12:29:10;;;;;;;6.22;2.50;;;;;;;;;;4972321;28;20105;-66
2021/10/01 12:31:42;;;;;;;10.20;3.13;;;;;;;;;;4972206;28;20055;-62
2021/10/01 12:34:11;;;;;;;5.75;2.90;;;;;;;;;;4972414;28;20610;-64
2021/10/01 12:36:38;;;;;;;8.20;2.92;;;;;;;;;;4972158;28;20053;-64
2021/10/01 12:39:06;;;;;;;7.00;3.10;;;;;;;;;;4972001;28;20057;-64
2021/10/01 12:41:33;;;;;;;6.07;3.00;;;;;;;;;;4972035;28;20062;-64
2021/10/01 12:44:02;;;;;;;5.45;3.13;;;;;;;;;;4972005;28;20060;-63
2021/10/01 12:46:46;;;;;;;5.30;2.80;;;;;;;;;;4971980;28;20410;-64
2021/10/01 12:49:21;;;;;;;12.10;7.72;;;;;;;;;;4972182;28;20416;-64
2021/10/01 12:52:12;;;;;;;6.30;2.92;;;;;;;;;;4971926;28;20124;-63
2021/10/01 12:54:46;;;;;;;7.38;3.33;;;;;;;;;;4971626;28;20051;-64
2021/10/01 12:57:19;;;;;;;6.38;3.38;;;;;;;;;;4971696;28;20049;-66
2021/10/01 12:59:47;;;;;;;6.35;3.10;;;;;;;;;;4972021;28;20050;-64
2021/10/01 13:02:19;;;;;;;6.22;3.40;;;;;;;;;;4971808;28;20109;-64
2021/10/01 13:04:55;;;;;;;6.78;3.92;;;;;;;;;;4971815;28;20050;-64
2021/10/01 13:07:27;;;;;;;6.22;2.70;;;;;;;;;;4971860;28;20047;-64
2021/10/01 13:09:55;;;;;;;5.65;2.90;;;;;;;;;;4971985;28;20057;-64
2021/10/01 13:12:38;;;;;;;4.82;2.95;;;;;;;;;;4971174;28;20053;-63
2021/10/01 13:15:26;;;;;;;5.22;3.13;;;;;;;;;;4971561;28;20451;-64
2021/10/01 13:18:04;;;;;;;6.68;3.00;;;;;;;;;;4971461;28;20051;-63
2021/10/01 13:20:32;;;;;;;6.40;4.00;;;;;;;;;;4971596;28;20508;-64
2021/10/01 13:23:02;;;;;;;5.82;3.38;;;;;;;;;;4971556;28;20050;-64
2021/10/01 13:25:32;;;;;;;9.10;5.82;;;;;;;;;;4971538;28;20056;-64
2021/10/01 13:28:00;;;;;;;;;;;;;;;;;;4972240;28;20046;-64
2021/10/01 13:30:28;;;;;;;12.55;7.43;;;;;;;;;;4971736;28;19937;-64
2021/10/01 13:32:56;;;;;;;6.75;3.50;;;;;;;;;;4971645;28;20122;-64
2021/10/01 13:35:25;;;;;;;6.55;3.10;;;;;;;;;;4971456;28;20417;-64
2021/10/01 13:37:52;;;;;;;8.97;3.40;;;;;;;;;;4971579;28;20059;-64
2021/10/01 13:40:19;;;;;;;5.97;3.67;;;;;;;;;;4971710;28;20489;-65
2021/10/01 13:42:47;;;;;;;7.03;3.47;;;;;;;;;;4971080;28;20078;-63
2021/10/01 13:45:14;;;;;;;6.78;3.28;;;;;;;;;;4970938;28;20428;-64
2021/10/01 13:47:42;;;;;;;4.53;2.45;;;;;;;;;;4971090;28;20051;-64
2021/10/01 13:50:11;;;;;;;5.43;2.72;;;;;;;;;;4971045;28;20047;-64
2021/10/01 13:52:40;;;;;;;5.30;2.60;;;;;;;;;;4971054;28;20061;-63
2021/10/01 13:55:10;;;;;;;5.05;2.53;;;;;;;;;;4971179;28;20239;-64
2021/10/01 13:57:37;;;;;;;6.22;2.53;;;;;;;;;;4971297;28;20089;-64
2021/10/01 14:00:07;;;;;;;5.57;2.65;;;;;;;;;;4971460;28;20154;-64
2021/10/01 14:02:36;;;;;;;4.28;2.42;;;;;;;;;;4971110;28;20061;-65
2021/10/01 14:05:04;;;;;;;4.68;2.67;;;;;;;;;;4971179;28;20075;-65
2021/10/01 14:07:31;;;;;;;5.60;2.60;;;;;;;;;;4971738;28;20057;-65
2021/10/01 14:10:00;;;;;;;4.25;2.35;;;;;;;;;;4971204;28;20054;-64
2021/10/01 14:12:29;;;;;;;5.00;2.77;;;;;;;;;;4970900;28;20356;-65
2021/10/01 14:14:56;;;;;;;6.25;3.30;;;;;;;;;;4970830;28;20050;-64
2021/10/01 14:17:24;;;;;;;5.03;2.92;;;;;;;;;;4971008;28;20411;-63
2021/10/01 14:19:52;;;;;;;4.55;2.42;;;;;;;;;;4970847;28;20054;-64
2021/10/01 14:22:19;;;;;;;6.88;2.70;;;;;;;;;;4971032;28;20159;-64
2021/10/01 14:24:46;;;;;;;9.45;4.53;;;;;;;;;;4974036;28;20531;-63
2021/10/01 14:27:15;;;;;;;6.55;3.08;;;;;;;;;;4974577;28;20061;-64
2021/10/01 14:29:42;;;;;;;4.50;2.40;;;;;;;;;;4974680;28;20149;-65
2021/10/01 14:32:10;;;;;;;7.70;3.55;;;;;;;;;;4974303;28;20053;-64
2021/10/01 14:34:37;;;;;;;4.90;3.00;;;;;;;;;;4974436;28;20440;-63
2021/10/01 14:37:05;;;;;;;6.63;3.63;;;;;;;;;;4974626;28;20420;-65
2021/10/01 14:39:32;;;;;;;6.95;2.65;;;;;;;;;;4974366;28;20062;-64
2021/10/01 14:41:59;;;;;;;4.75;3.28;;;;;;;;;;4974370;28;20051;-64
2021/10/01 14:44:27;;;;;;;6.28;3.05;;;;;;;;;;4974477;28;20097;-63
2021/10/01 14:46:54;;;;;;;6.25;3.13;;;;;;;;;;4974241;28;20055;-65
2021/10/01 14:49:22;;;;;;;5.82;3.28;;;;;;;;;;4974150;28;20061;-65
2021/10/01 14:51:49;;;;;;;4.55;2.65;;;;;;;;;;4974785;28;20059;-64
2021/10/01 14:54:16;;;;;;;4.78;2.97;;;;;;;;;;4974035;28;20053;-66
2021/10/01 14:56:43;;;;;;;4.50;2.30;;;;;;;;;;4973959;28;20047;-64
2021/10/01 14:59:10;;;;;;;6.15;3.47;;;;;;;;;;4974104;28;20051;-64
2021/10/01 15:01:39;;;;;;;6.65;3.03;;;;;;;;;;4974051;28;20050;-64
2021/10/01 15:04:06;;;;;;;6.15;2.67;;;;;;;;;;4973845;28;20059;-64
2021/10/01 15:06:33;;;;;;;4.55;2.25;;;;;;;;;;4973917;28;20054;-64
2021/10/01 15:09:00;;;;;;;8.20;3.15;;;;;;;;;;4973839;28;20043;-64
2021/10/01 15:11:27;;;;;;;6.82;3.42;;;;;;;;;;4973601;28;20074;-64
2021/10/01 15:13:54;;;;;;;5.97;2.83;;;;;;;;;;4973881;28;20394;-65
2021/10/01 15:16:21;;;;;;;5.93;2.72;;;;;;;;;;4973637;28;20076;-65
2021/10/01 15:18:49;;;;;;;5.82;2.78;;;;;;;;;;4973689;28;20065;-64
2021/10/01 15:21:16;;;;;;;5.13;2.75;;;;;;;;;;4973578;28;20413;-65
2021/10/01 15:23:43;;;;;;;4.93;2.53;;;;;;;;;;4973550;28;20050;-64
2021/10/01 15:26:11;;;;;;;5.78;2.45;;;;;;;;;;4973552;28;20054;-66
2021/10/01 15:28:39;;;;;;;4.60;3.10;;;;;;;;;;4973393;28;20050;-65
2021/10/01 15:31:06;;;;;;;4.43;2.90;;;;;;;;;;4973867;28;20063;-65
2021/10/01 15:33:33;;;;;;;4.95;2.50;;;;;;;;;;4973300;28;20523;-65
2021/10/01 15:36:01;;;;;;;6.00;3.42;;;;;;;;;;4972834;28;20496;-65
2021/10/01 15:38:28;;;;;;;7.78;5.55;;;;;;;;;;4973262;28;20058;-65
2021/10/01 15:40:55;;;;;;;15.32;8.70;;;;;;;;;;4973095;28;20061;-65
2021/10/01 15:43:22;;;;;;;5.50;3.17;;;;;;;;;;4976263;28;20057;-65
2021/10/01 15:45:51;;;;;;;6.25;2.90;;;;;;;;;;4973294;28;20058;-65
2021/10/01 15:48:18;;;;;;;6.03;2.80;;;;;;;;;;4972901;28;20055;-65
2021/10/01 15:50:45;;;;;;;13.88;8.95;;;;;;;;;;4972683;28;20378;-64
2021/10/01 15:53:14;;;;;;;7.53;3.45;;;;;;;;;;4972815;28;20423;-64
2021/10/01 15:55:41;;;;;;;7.03;3.60;;;;;;;;;;4973041;28;20065;-64
2021/10/01 15:58:09;;;;;;;9.27;3.35;;;;;;;;;;4973157;28;20479;-63
2021/10/01 16:00:39;;;;;;;9.73;4.55;;;;;;;;;;4973155;28;20453;-64
2021/10/01 16:03:08;;;;;;;8.52;4.88;;;;;;;;;;4973039;28;20065;-63
2021/10/01 16:05:35;;;;;;;7.30;4.97;;;;;;;;;;4972702;28;20058;-65
2021/10/01 16:08:03;;;;;;;7.90;4.03;;;;;;;;;;4972477;28;20058;-68
2021/10/01 16:10:32;;;;;;;6.78;4.05;;;;;;;;;;4972974;28;20078;-64
2021/10/01 16:12:59;;;;;;;11.13;3.75;;;;;;;;;;4972903;28;20485;-62
2021/10/01 16:15:27;;;;;;;9.25;4.78;;;;;;;;;;4972574;28;20070;-64
2021/10/01 16:17:54;;;;;;;9.02;4.78;;;;;;;;;;4972734;28;20055;-64
2021/10/01 16:20:26;;;;;;;8.65;4.68;;;;;;;;;;4972539;28;20046;-64
2021/10/01 16:22:54;;;;;;;7.20;3.95;;;;;;;;;;4972616;28;20145;-64
2021/10/01 16:25:23;;;;;;;6.50;3.40;;;;;;;;;;4972284;28;20113;-63